Time;durP1;ratioP1;P1;durP2;ratioP2;P2;SDS_P1;SDS_P2;PMS_P1;PMS_P2;Temp;Humidity;BMP_temperature;BMP_pressure;BME280_temperature;BME280_humidity;BME280_pressure;Samples;Min_cycle;Max_cycle;Signal;HPM_P1;HPM_P2
2024/03/06 00:01:33;;;;;;;16.52;8.57;;;;;;;2.95;100.00;101459.84;5059909;28;20454;-82
2024/03/06 00:04:03;;;;;;;16.65;8.90;;;;;;;2.91;100.00;101469.38;5052395;28;21209;-82
2024/03/06 00:06:36;;;;;;;18.23;8.90;;;;;;;2.76;100.00;101464.22;5052375;28;20420;-82
2024/03/06 00:09:09;;;;;;;16.30;8.48;;;;;;;2.83;100.00;101470.44;5054573;28;20461;-82
2024/03/06 00:11:38;;;;;;;14.73;8.70;;;;;;;2.84;100.00;101471.25;5053033;28;20518;-82
2024/03/06 00:14:06;;;;;;;16.85;8.82;;;;;;;2.98;100.00;101472.88;5051396;28;20425;-82
2024/03/06 00:16:39;;;;;;;14.60;8.23;;;;;;;2.83;100.00;101466.91;5060292;28;20948;-82
2024/03/06 00:19:13;;;;;;;16.67;8.57;;;;;;;2.85;100.00;101478.28;5050305;28;20448;-82
2024/03/06 00:21:42;;;;;;;15.07;8.30;;;;;;;2.84;100.00;101472.06;5059249;28;20442;-82
2024/03/06 00:24:15;;;;;;;14.73;8.38;;;;;;;2.84;100.00;101480.13;5053164;28;20426;-82
2024/03/06 00:26:44;;;;;;;17.52;8.32;;;;;;;2.82;100.00;101479.53;5054334;28;20896;-83
2024/03/06 00:29:13;;;;;;;15.25;8.40;;;;;;;2.78;100.00;101482.84;5057668;28;21127;-81
2024/03/06 00:31:43;;;;;;;14.95;8.98;;;;;;;2.81;100.00;101475.19;5058801;28;20406;-82
2024/03/06 00:34:18;;;;;;;15.18;8.43;;;;;;;2.82;100.00;101484.91;5059697;28;20423;-82
2024/03/06 00:36:46;;;;;;;15.27;8.90;;;;;;;2.93;100.00;101482.59;5059348;28;20436;-82
2024/03/06 00:39:19;;;;;;;14.77;8.53;;;;;;;2.84;100.00;101487.38;5059435;28;20423;-82
2024/03/06 00:41:53;;;;;;;16.25;8.40;;;;;;;2.85;100.00;101492.53;5056320;28;20420;-82
2024/03/06 00:44:26;;;;;;;14.93;7.60;;;;;;;2.82;100.00;101492.97;5056542;28;20429;-82
2024/03/06 00:46:54;;;;;;;16.02;8.10;;;;;;;2.88;100.00;101489.44;5060392;28;20893;-82
2024/03/06 00:49:28;;;;;;;15.13;8.18;;;;;;;2.74;100.00;101492.38;5064056;28;20428;-82
2024/03/06 00:51:57;;;;;;;14.95;7.97;;;;;;;2.72;100.00;101498.78;5055225;28;20421;-81
2024/03/06 00:54:30;;;;;;;15.00;7.93;;;;;;;2.66;100.00;101496.88;5056925;28;20809;-82
2024/03/06 00:57:03;;;;;;;13.93;7.90;;;;;;;2.68;100.00;101499.38;5054780;28;20422;-82
2024/03/06 00:59:37;;;;;;;15.77;8.18;;;;;;;2.72;100.00;101504.16;5053173;28;20757;-82
2024/03/06 01:02:06;;;;;;;15.27;8.20;;;;;;;2.72;100.00;101508.69;5054694;28;20433;-82
2024/03/06 01:04:41;;;;;;;14.70;8.07;;;;;;;2.76;100.00;101504.53;5053014;28;20420;-82
2024/03/06 01:07:14;;;;;;;14.90;8.07;;;;;;;2.80;100.00;101507.66;5052635;28;20950;-82
2024/03/06 01:09:47;;;;;;;13.25;7.60;;;;;;;2.84;100.00;101507.00;5054970;28;20448;-82
2024/03/06 01:12:21;;;;;;;16.58;8.30;;;;;;;2.79;100.00;101506.84;5057185;28;20437;-83
2024/03/06 01:14:49;;;;;;;16.58;8.00;;;;;;;2.90;100.00;101518.81;5051289;28;20459;-83
2024/03/06 01:17:17;;;;;;;14.70;7.90;;;;;;;2.83;100.00;101513.44;5052193;28;20418;-82
2024/03/06 01:19:51;;;;;;;15.27;7.70;;;;;;;2.83;100.00;101508.06;5058125;28;20426;-82
2024/03/06 01:22:20;;;;;;;16.13;8.10;;;;;;;2.82;100.00;101508.28;5052616;28;20532;-82
2024/03/06 01:24:53;;;;;;;15.82;7.40;;;;;;;2.82;100.00;101510.97;5053679;28;20581;-82
2024/03/06 01:27:21;;;;;;;13.60;7.53;;;;;;;2.70;100.00;101514.25;5052794;28;20436;-82
2024/03/06 01:29:49;;;;;;;15.43;7.70;;;;;;;2.67;100.00;101519.25;5050962;28;20429;-83
2024/03/06 01:32:22;;;;;;;14.13;6.50;;;;;;;2.72;100.00;101520.28;5050893;28;20442;-82
2024/03/06 01:34:57;;;;;;;14.70;6.82;;;;;;;2.66;100.00;101525.63;5052315;28;20464;-82
2024/03/06 01:37:30;;;;;;;12.80;6.80;;;;;;;2.61;100.00;101528.09;5054526;28;21062;-82
2024/03/06 01:39:58;;;;;;;16.65;7.35;;;;;;;2.62;100.00;101535.16;5049312;28;20430;-82
2024/03/06 01:42:27;;;;;;;12.75;6.88;;;;;;;2.65;100.00;101527.50;5056865;28;20433;-81
2024/03/06 01:45:01;;;;;;;11.77;6.60;;;;;;;2.59;100.00;101533.69;5052558;28;20425;-82
2024/03/06 01:47:34;;;;;;;13.57;7.07;;;;;;;2.56;100.00;101534.13;5052545;28;20421;-82
2024/03/06 01:50:08;;;;;;;11.00;6.10;;;;;;;2.66;100.00;101539.06;5054285;28;20428;-82
2024/03/06 01:52:43;;;;;;;12.27;6.53;;;;;;;2.68;100.00;101537.00;5052887;28;20433;-83
2024/03/06 01:55:16;;;;;;;12.88;6.28;;;;;;;2.66;100.00;101534.53;5050816;28;20840;-82
2024/03/06 01:57:50;;;;;;;11.77;6.47;;;;;;;2.77;100.00;101545.69;5066016;28;20429;-82
2024/03/06 02:00:24;;;;;;;13.25;6.55;;;;;;;2.67;100.00;101556.88;5053897;28;20891;-83
2024/03/06 02:02:54;;;;;;;12.90;6.30;;;;;;;2.60;100.00;101550.66;5055371;28;22011;-82
2024/03/06 02:05:24;;;;;;;12.68;6.22;;;;;;;2.55;100.00;101559.31;5065119;28;20431;-82
2024/03/06 02:07:59;;;;;;;12.98;6.28;;;;;;;2.75;100.00;101553.13;5056318;28;20419;-82
2024/03/06 02:10:28;;;;;;;12.93;5.95;;;;;;;2.88;100.00;101562.03;5064885;28;20424;-82
2024/03/06 02:13:01;;;;;;;9.90;5.22;;;;;;;2.74;100.00;101555.00;5052465;28;20428;-82
2024/03/06 02:15:35;;;;;;;10.45;5.85;;;;;;;2.66;100.00;101555.19;5074125;28;20799;-83
2024/03/06 02:18:09;;;;;;;12.73;5.90;;;;;;;2.48;100.00;101558.50;5058833;28;20422;-82
2024/03/06 02:20:45;;;;;;;16.23;5.63;;;;;;;2.51;100.00;101558.91;5051301;28;20421;-81
2024/03/06 02:23:14;;;;;;;10.45;5.80;;;;;;;2.52;100.00;101554.38;5053842;28;20848;-81
2024/03/06 02:25:43;;;;;;;11.02;6.05;;;;;;;2.56;100.00;101560.97;5056414;28;20435;-82
2024/03/06 02:28:16;;;;;;;9.63;5.60;;;;;;;2.54;100.00;101563.03;5050694;28;20421;-82
2024/03/06 02:30:51;;;;;;;14.48;5.93;;;;;;;2.56;100.00;101560.97;5053776;28;20439;-82
2024/03/06 02:33:24;;;;;;;10.75;6.18;;;;;;;2.55;100.00;101565.53;5054562;28;20417;-82
2024/03/06 02:35:58;;;;;;;11.07;5.80;;;;;;;2.51;100.00;101569.66;5053203;28;20433;-81
2024/03/06 02:38:31;;;;;;;11.23;6.00;;;;;;;2.58;100.00;101574.22;5052359;28;20410;-82
2024/03/06 02:41:06;;;;;;;12.68;6.15;;;;;;;2.54;100.00;101569.25;5051233;28;20420;-82
2024/03/06 02:43:34;;;;;;;11.17;6.10;;;;;;;2.49;100.00;101560.16;5050231;28;21055;-82
2024/03/06 02:46:03;;;;;;;12.05;6.30;;;;;;;2.45;100.00;101570.47;5052523;28;20434;-82
2024/03/06 02:48:36;;;;;;;9.73;5.60;;;;;;;2.41;100.00;101563.03;5054207;28;20874;-83
2024/03/06 02:51:10;;;;;;;9.18;5.38;;;;;;;2.40;100.00;101564.88;5052787;28;20434;-82
2024/03/06 02:53:39;;;;;;;9.68;5.43;;;;;;;2.41;100.00;101563.84;5060925;28;20435;-81
2024/03/06 02:56:17;;;;;;;10.13;6.00;;;;;;;2.45;100.00;101564.28;5062605;28;20427;-82
2024/03/06 02:58:50;;;;;;;10.90;5.40;;;;;;;2.49;100.00;101557.47;5050530;28;20429;-82
2024/03/06 03:01:18;;;;;;;11.05;5.63;;;;;;;2.46;100.00;101568.59;5059029;28;20433;-82
2024/03/06 03:03:47;;;;;;;10.18;5.55;;;;;;;2.47;100.00;101573.78;5048524;28;20429;-82
2024/03/06 03:06:16;;;;;;;11.35;5.70;;;;;;;2.49;100.00;101563.66;5056178;28;20958;-82
2024/03/06 03:08:44;;;;;;;11.38;6.10;;;;;;;2.45;100.00;101575.03;5073168;28;20442;-83
2024/03/06 03:11:17;;;;;;;11.50;5.68;;;;;;;2.45;100.00;101577.72;5049159;28;20421;-82
2024/03/06 03:13:51;;;;;;;10.90;5.73;;;;;;;2.49;100.00;101576.28;5049950;28;21289;-82
2024/03/06 03:16:20;;;;;;;12.35;5.75;;;;;;;2.46;100.00;101577.50;5052052;28;20409;-83
2024/03/06 03:18:48;;;;;;;10.23;5.40;;;;;;;2.36;100.00;101569.00;5055868;28;20425;-82
2024/03/06 03:21:18;;;;;;;10.35;5.78;;;;;;;2.40;100.00;101574.81;5070990;28;21277;-82
2024/03/06 03:23:46;;;;;;;10.13;5.25;;;;;;;2.44;100.00;101582.25;5058014;28;20802;-82
2024/03/06 03:26:19;;;;;;;12.77;5.28;;;;;;;2.39;100.00;101584.72;5064119;28;20431;-82
2024/03/06 03:28:53;;;;;;;11.10;5.40;;;;;;;2.23;100.00;101588.59;5059843;28;20762;-82
2024/03/06 03:31:21;;;;;;;11.00;5.63;;;;;;;2.44;100.00;101582.25;5056799;28;20424;-82
2024/03/06 03:33:54;;;;;;;9.10;5.18;;;;;;;2.38;100.00;101580.38;5056593;28;20450;-82
2024/03/06 03:36:24;;;;;;;9.45;4.90;;;;;;;2.28;100.00;101583.44;5064546;28;20884;-82
2024/03/06 03:38:58;;;;;;;12.18;5.32;;;;;;;2.20;100.00;101600.56;5068149;28;20427;-82
2024/03/06 03:41:31;;;;;;;9.27;5.25;;;;;;;2.17;100.00;101600.16;5063806;28;20421;-82
2024/03/06 03:43:59;;;;;;;8.98;5.43;;;;;;;2.26;100.00;101604.28;5058598;28;21212;-82
2024/03/06 03:46:32;;;;;;;9.30;5.30;;;;;;;2.27;100.00;101611.34;5054252;28;20419;-82
2024/03/06 03:49:06;;;;;;;11.70;5.50;;;;;;;2.33;100.00;101609.69;5058038;28;20424;-82
2024/03/06 03:51:41;;;;;;;10.02;5.80;;;;;;;2.30;100.00;101610.94;5055388;28;20789;-82
2024/03/06 03:54:09;;;;;;;9.10;5.53;;;;;;;2.26;100.00;101607.00;5055164;28;20428;-82
2024/03/06 03:56:42;;;;;;;10.35;5.30;;;;;;;2.36;100.00;101601.22;5057762;28;20417;-82
2024/03/06 03:59:10;;;;;;;9.93;5.35;;;;;;;2.33;100.00;101605.13;5052017;28;20421;-82
2024/03/06 04:01:46;;;;;;;10.57;5.40;;;;;;;2.42;100.00;101604.97;5056122;28;21115;-82
2024/03/06 04:04:19;;;;;;;9.07;5.15;;;;;;;2.31;100.00;101609.09;5056054;28;20443;-82
2024/03/06 04:06:54;;;;;;;11.02;5.82;;;;;;;2.38;100.00;101608.06;5061907;28;20420;-82
2024/03/06 04:09:27;;;;;;;10.75;5.45;;;;;;;2.28;100.00;101606.78;5057107;28;20423;-82
2024/03/06 04:11:55;;;;;;;9.85;5.57;;;;;;;2.51;100.00;101617.19;5058516;28;20434;-82
2024/03/06 04:14:29;;;;;;;9.48;5.50;;;;;;;2.24;100.00;101624.31;5059339;28;20433;-82
2024/03/06 04:17:03;;;;;;;10.80;5.90;;;;;;;2.35;100.00;101613.03;5056699;28;20780;-82
2024/03/06 04:19:32;;;;;;;11.10;6.05;;;;;;;2.27;100.00;101615.88;5056125;28;20429;-82
2024/03/06 04:22:02;;;;;;;11.03;5.47;;;;;;;2.23;100.00;101618.13;5053086;28;20436;-81
2024/03/06 04:24:35;;;;;;;9.82;5.82;;;;;;;2.28;100.00;101621.06;5056945;28;20481;-82
2024/03/06 04:27:08;;;;;;;10.75;5.75;;;;;;;2.24;100.00;101619.81;5060434;28;20430;-82
2024/03/06 04:29:42;;;;;;;11.07;5.82;;;;;;;2.28;100.00;101615.69;5057748;28;20427;-82
2024/03/06 04:32:15;;;;;;;11.13;5.90;;;;;;;2.24;100.00;101619.81;5055684;28;20429;-82
2024/03/06 04:34:43;;;;;;;10.07;5.87;;;;;;;2.16;100.00;101619.97;5052827;28;20876;-82
2024/03/06 04:37:18;;;;;;;10.93;6.13;;;;;;;2.13;100.00;101625.75;5054298;28;20893;-82
2024/03/06 04:39:51;;;;;;;10.35;5.80;;;;;;;2.17;100.00;101621.63;5055654;28;20444;-82
2024/03/06 04:42:24;;;;;;;11.75;6.30;;;;;;;2.15;100.00;101621.00;5056088;28;20417;-82
2024/03/06 04:44:58;;;;;;;9.40;5.70;;;;;;;2.17;100.00;101625.16;5060385;28;20427;-82
2024/03/06 04:47:31;;;;;;;10.23;6.07;;;;;;;2.30;100.00;101623.53;5054780;28;21263;-82
2024/03/06 04:50:08;;;;;;;11.07;5.90;;;;;;;2.10;100.00;101616.25;5053271;28;20433;-81
2024/03/06 04:52:39;;;;;;;11.20;5.78;;;;;;;2.04;100.00;101622.38;5064329;28;20421;-82
2024/03/06 04:55:09;;;;;;;9.50;5.82;;;;;;;1.91;100.00;101622.34;5056077;28;20950;-82
2024/03/06 04:57:44;;;;;;;10.60;5.90;;;;;;;1.81;100.00;101625.38;5059281;28;20432;-82
2024/03/06 05:00:19;;;;;;;9.63;5.68;;;;;;;1.82;100.00;101627.88;5060417;28;20429;-82
2024/03/06 05:02:49;;;;;;;10.52;6.20;;;;;;;1.74;100.00;101628.03;5060272;28;20416;-83
2024/03/06 05:05:35;;;;;;;11.05;5.90;;;;;;;1.63;100.00;101640.16;5051278;28;20438;-82
2024/03/06 05:08:21;;;;;;;10.70;5.80;;;;;;;1.68;100.00;101640.38;5052611;28;20433;-82
2024/03/06 05:11:07;;;;;;;13.68;6.20;;;;;;;1.62;100.00;101637.66;5058737;28;20439;-82
2024/03/06 05:13:53;;;;;;;11.40;6.40;;;;;;;1.55;100.00;101645.66;5060976;28;20437;-82
2024/03/06 05:16:39;;;;;;;11.70;6.27;;;;;;;1.55;100.00;101640.28;5056876;28;20450;-82
2024/03/06 05:19:31;;;;;;;12.82;6.35;;;;;;;1.45;100.00;101637.97;5066318;28;20440;-82
2024/03/06 05:22:17;;;;;;;10.90;5.80;;;;;;;1.39;100.00;101648.63;5057629;28;20431;-82
2024/03/06 05:25:05;;;;;;;12.87;6.40;;;;;;;1.34;100.00;101650.06;5059858;28;20455;-82
2024/03/06 05:27:51;;;;;;;11.43;6.43;;;;;;;1.38;100.00;101655.03;5059659;28;20430;-82
2024/03/06 05:30:37;;;;;;;11.47;6.27;;;;;;;1.34;100.00;101655.41;5052861;28;20777;-83
2024/03/06 05:33:22;;;;;;;11.57;6.30;;;;;;;1.32;100.00;101660.13;5052508;28;20430;-82
2024/03/06 05:36:09;;;;;;;11.00;6.28;;;;;;;1.30;100.00;101654.16;5052508;28;20420;-82
2024/03/06 05:38:54;;;;;;;10.18;5.95;;;;;;;1.26;100.00;101673.50;5055649;28;21045;-82
2024/03/06 05:41:42;;;;;;;10.65;6.20;;;;;;;1.17;100.00;101667.44;5054239;28;20431;-82
2024/03/06 05:44:28;;;;;;;11.10;6.30;;;;;;;1.07;100.00;101680.34;5063861;28;20443;-82
2024/03/06 05:47:14;;;;;;;10.27;5.80;;;;;;;0.97;100.00;101683.34;5055863;28;20960;-82
2024/03/06 05:50:00;;;;;;;11.33;6.30;;;;;;;0.85;100.00;101683.00;5057620;28;20469;-82
2024/03/06 05:52:46;;;;;;;13.18;6.50;;;;;;;0.78;100.00;101680.25;5055292;28;20442;-82
2024/03/06 05:55:32;;;;;;;12.07;6.32;;;;;;;0.71;100.00;101686.59;5052164;28;20428;-82
2024/03/06 05:58:19;;;;;;;12.20;6.60;;;;;;;0.58;100.00;101695.28;5060714;28;20439;-82
2024/03/06 06:00:53;;;;;;;13.18;7.10;;;;;;;0.61;100.00;101693.06;5052636;28;20420;-82
2024/03/06 06:03:21;;;;;;;12.57;6.88;;;;;;;0.65;100.00;101712.28;5063851;28;20479;-82
2024/03/06 06:05:49;;;;;;;11.10;6.50;;;;;;;0.64;100.00;101711.44;5051650;28;21198;-83
2024/03/06 06:08:18;;;;;;;12.85;6.82;;;;;;;0.64;100.00;101713.28;5053028;28;20424;-81
2024/03/06 06:10:46;;;;;;;12.27;6.35;;;;;;;0.62;100.00;101718.84;5053966;28;20425;-82
2024/03/06 06:13:22;;;;;;;11.27;6.53;;;;;;;0.64;100.00;101715.97;5048792;28;20436;-82
2024/03/06 06:15:55;;;;;;;12.25;6.90;;;;;;;0.59;100.00;101721.88;5055376;28;20433;-82
2024/03/06 06:18:23;;;;;;;12.02;6.88;;;;;;;0.55;100.00;101736.66;5053864;28;20438;-82
2024/03/06 06:20:56;;;;;;;11.20;6.40;;;;;;;0.58;100.00;101736.31;5051115;28;20433;-82
2024/03/06 06:23:25;;;;;;;11.88;6.60;;;;;;;0.56;100.00;101734.81;5052081;28;20421;-82
2024/03/06 06:25:53;;;;;;;11.80;6.47;;;;;;;0.57;100.00;101747.22;5055963;28;20524;-81
2024/03/06 06:28:27;;;;;;;10.35;5.97;;;;;;;0.57;100.00;101742.69;5052963;28;20424;-82
2024/03/06 06:31:01;;;;;;;10.82;6.32;;;;;;;0.62;100.00;101747.47;5053029;28;20421;-82
2024/03/06 06:33:29;;;;;;;11.75;6.72;;;;;;;0.63;100.00;101743.78;5049407;28;20429;-82
2024/03/06 06:36:06;;;;;;;12.43;6.70;;;;;;;0.62;100.00;101742.94;5047547;28;20423;-83
2024/03/06 06:38:34;;;;;;;12.15;6.97;;;;;;;0.74;100.00;101755.84;5052087;28;20436;-82
2024/03/06 06:41:07;;;;;;;15.25;7.38;;;;;;;0.81;100.00;101756.75;5054004;28;20819;-82
2024/03/06 06:43:42;;;;;;;12.77;7.00;;;;;;;0.83;100.00;101755.56;5051137;28;20415;-82
2024/03/06 06:46:17;;;;;;;11.73;6.90;;;;;;;0.90;100.00;101760.16;5052046;28;20415;-82
2024/03/06 06:48:50;;;;;;;13.85;7.60;;;;;;;0.91;100.00;101769.84;5052432;28;20504;-82
2024/03/06 06:51:18;;;;;;;13.18;7.03;;;;;;;1.06;100.00;101772.50;5052783;28;20424;-82
2024/03/06 06:53:52;;;;;;;12.02;7.20;;;;;;;1.07;100.00;101771.50;5050597;28;20443;-82
2024/03/06 06:56:22;;;;;;;12.63;7.45;;;;;;;1.06;100.00;101784.03;5056221;28;20482;-82
2024/03/06 06:58:58;;;;;;;13.80;7.18;;;;;;;1.09;100.00;101783.69;5056864;28;20988;-82
2024/03/06 07:01:27;;;;;;;13.63;7.40;;;;;;;1.13;100.00;101778.75;5058574;28;21085;-82
2024/03/06 07:04:00;;;;;;;13.35;7.32;;;;;;;1.14;100.00;101788.47;5055854;28;20463;-82
2024/03/06 07:06:33;;;;;;;12.25;7.40;;;;;;;1.16;100.00;101783.75;5060907;28;20436;-82
2024/03/06 07:09:04;;;;;;;12.95;7.50;;;;;;;1.26;100.00;101795.00;5057155;28;20432;-85
2024/03/06 07:11:32;;;;;;;12.80;7.38;;;;;;;1.30;100.00;101795.47;5055910;28;20422;-83
2024/03/06 07:14:07;;;;;;;15.07;7.70;;;;;;;1.30;100.00;101801.66;5058009;28;20919;-83
2024/03/06 07:16:35;;;;;;;11.57;7.00;;;;;;;1.30;100.00;101811.56;5054334;28;20443;-82
2024/03/06 07:19:03;;;;;;;14.93;7.70;;;;;;;1.34;100.00;101807.44;5072958;28;20437;-82
2024/03/06 07:21:31;;;;;;;13.43;7.68;;;;;;;1.41;100.00;101816.41;5055687;28;20415;-82
2024/03/06 07:24:00;;;;;;;11.93;7.18;;;;;;;1.44;100.00;101816.03;5051740;28;20797;-82
2024/03/06 07:26:29;;;;;;;12.40;7.00;;;;;;;1.47;100.00;101815.63;5054931;28;20886;-83
2024/03/06 07:29:03;;;;;;;12.27;7.28;;;;;;;1.54;100.00;101815.72;5053417;28;20427;-80
2024/03/06 07:31:38;;;;;;;12.85;7.50;;;;;;;1.55;100.00;101825.41;5060878;28;20427;-85
2024/03/06 07:34:11;;;;;;;13.05;7.47;;;;;;;1.62;100.00;101828.19;5056786;28;20913;-82
2024/03/06 07:36:39;;;;;;;13.63;7.78;;;;;;;1.68;100.00;101830.91;5060310;28;20892;-83
2024/03/06 07:39:12;;;;;;;13.30;7.78;;;;;;;1.74;100.00;101833.84;5061586;28;20437;-82
2024/03/06 07:41:40;;;;;;;13.10;7.35;;;;;;;1.78;100.00;101835.97;5065686;28;20444;-84
2024/03/06 07:44:08;;;;;;;13.80;7.95;;;;;;;1.82;100.00;101836.38;5059011;28;21025;-84
2024/03/06 07:46:38;;;;;;;13.40;7.88;;;;;;;1.85;100.00;101844.06;5057923;28;20905;-81
2024/03/06 07:49:11;;;;;;;14.30;7.97;;;;;;;1.83;100.00;101841.56;5060643;28;20444;-82
2024/03/06 07:51:40;;;;;;;12.48;7.63;;;;;;;1.93;100.00;101846.59;5053428;28;20429;-83
2024/03/06 07:54:09;;;;;;;14.23;7.97;;;;;;;1.94;100.00;101834.84;5053887;28;20447;-82
2024/03/06 07:56:37;;;;;;;14.18;7.45;;;;;;;2.00;100.00;101843.97;5047236;28;20427;-81
2024/03/06 07:59:12;;;;;;;15.52;7.50;;;;;;;2.03;100.00;101840.91;5050622;28;20429;-82
2024/03/06 08:01:41;;;;;;;11.90;7.68;;;;;;;2.09;100.00;101847.38;5050637;28;20433;-81
2024/03/06 08:04:15;;;;;;;14.40;7.75;;;;;;;2.10;100.00;101851.69;5048358;28;20452;-81
2024/03/06 08:06:48;;;;;;;14.35;7.35;;;;;;;2.13;100.00;101854.84;5052084;28;20438;-82
2024/03/06 08:09:21;;;;;;;14.23;7.63;;;;;;;2.18;100.00;101852.41;5054712;28;20439;-81
2024/03/06 08:11:49;;;;;;;13.07;7.45;;;;;;;2.26;100.00;101858.66;5053650;28;20732;-82
2024/03/06 08:14:18;;;;;;;15.10;7.38;;;;;;;2.42;100.00;101862.88;5056176;28;20432;-82
2024/03/06 08:16:52;;;;;;;13.57;7.18;;;;;;;2.48;100.00;101859.41;5012198;28;20427;-82
2024/03/06 08:19:20;;;;;;;12.35;7.45;;;;;;;2.53;100.00;101867.72;5038798;28;20485;-82
2024/03/06 08:21:53;;;;;;;13.85;7.38;;;;;;;2.53;100.00;101865.03;5032640;28;20422;-82
2024/03/06 08:24:27;;;;;;;11.48;6.70;;;;;;;2.68;100.00;101871.13;5046894;28;20802;-82
2024/03/06 08:26:56;;;;;;;11.32;6.63;;;;;;;2.65;100.00;101863.47;5033611;28;20804;-83
2024/03/06 08:29:30;;;;;;;10.93;6.38;;;;;;;2.68;100.00;101867.59;5027832;28;20438;-82
2024/03/06 08:32:05;;;;;;;14.45;7.35;;;;;;;2.81;100.00;101870.38;5030577;28;20429;-82
2024/03/06 08:34:33;;;;;;;10.80;6.53;;;;;;;3.09;100.00;101876.72;5023637;28;20432;-82
2024/03/06 08:37:01;;;;;;;10.27;6.25;;;;;;;3.09;100.00;101877.53;5022978;28;20869;-81
2024/03/06 08:39:35;;;;;;;12.68;6.43;;;;;;;3.22;100.00;101888.34;5031872;28;20432;-82
2024/03/06 08:42:09;;;;;;;11.55;6.45;;;;;;;3.30;100.00;101886.50;5028083;28;20435;-83
2024/03/06 08:44:42;;;;;;;10.77;6.03;;;;;;;3.27;100.00;101887.75;5020761;28;20420;-82
2024/03/06 08:47:16;;;;;;;12.80;6.28;;;;;;;3.43;100.00;101889.25;5036021;28;20473;-82
2024/03/06 08:49:50;;;;;;;10.50;6.00;;;;;;;3.48;100.00;101899.41;5032624;28;20430;-82
2024/03/06 08:52:18;;;;;;;10.60;6.13;;;;;;;3.35;100.00;101897.50;5022586;28;20416;-83
2024/03/06 08:54:46;;;;;;;11.02;6.10;;;;;;;3.24;100.00;101896.22;5026420;28;20428;-82
2024/03/06 08:57:21;;;;;;;11.43;6.00;;;;;;;3.45;100.00;101894.44;5031945;28;20415;-83
2024/03/06 08:59:54;;;;;;;12.27;5.90;;;;;;;3.58;100.00;101900.69;5034869;28;20416;-83
2024/03/06 09:02:29;;;;;;;10.52;5.78;;;;;;;3.70;100.00;101905.47;5029845;28;20423;-83
2024/03/06 09:05:04;;;;;;;11.27;6.03;;;;;;;3.59;100.00;101906.91;5033386;28;20423;-83
2024/03/06 09:07:40;;;;;;;10.50;5.60;;;;;;;3.55;100.00;101898.41;5029934;28;20432;-83
2024/03/06 09:10:14;;;;;;;12.23;6.38;;;;;;;3.63;100.00;101899.25;5035352;28;20423;-83
2024/03/06 09:12:42;;;;;;;11.82;6.28;;;;;;;3.58;100.00;101907.94;5033893;28;20435;-83
2024/03/06 09:15:17;;;;;;;11.88;6.28;;;;;;;3.57;100.00;101909.78;4999824;28;20452;-83
2024/03/06 09:17:52;;;;;;;10.17;5.70;;;;;;;3.75;100.00;101914.59;5024985;28;20434;-83
2024/03/06 09:20:20;;;;;;;12.20;6.20;;;;;;;3.66;100.00;101918.53;5017765;28;20439;-82
2024/03/06 09:22:56;;;;;;;10.30;5.80;;;;;;;3.92;100.00;101920.44;5021916;28;20427;-83
2024/03/06 09:25:29;;;;;;;12.50;6.20;;;;;;;3.71;100.00;101918.72;5036384;28;20954;-83
2024/03/06 09:27:59;;;;;;;12.23;6.55;;;;;;;3.68;100.00;101929.09;5028923;28;21100;-83
2024/03/06 09:30:36;;;;;;;10.50;6.00;;;;;;;3.96;100.00;101920.84;5029220;28;20426;-83
2024/03/06 09:33:06;;;;;;;10.85;6.20;;;;;;;4.21;100.00;101933.72;5035032;28;20443;-82
2024/03/06 09:35:34;;;;;;;13.43;6.57;;;;;;;4.33;100.00;101925.88;5028780;28;20431;-83
2024/03/06 09:38:09;;;;;;;10.40;5.97;;;;;;;4.31;100.00;101928.78;5026823;28;20428;-82
2024/03/06 09:40:43;;;;;;;11.55;5.95;;;;;;;4.34;100.00;101933.75;5024911;28;20436;-83
2024/03/06 09:43:11;;;;;;;10.45;5.80;;;;;;;4.35;100.00;101939.94;5045054;28;20419;-83
2024/03/06 09:45:39;;;;;;;10.07;6.00;;;;;;;4.32;100.00;101918.81;5048631;28;20408;-84
2024/03/06 09:48:09;;;;;;;11.60;6.72;;;;;;;4.28;100.00;101926.50;5046816;28;20419;-83
2024/03/06 09:50:41;;;;;;;12.80;6.50;;;;;;;4.57;100.00;101927.94;5039797;28;20423;-82
2024/03/06 09:53:16;;;;;;;12.93;6.35;;;;;;;4.58;100.00;101929.59;5045215;28;20887;-83
2024/03/06 09:55:51;;;;;;;11.15;6.05;;;;;;;4.91;100.00;101935.97;5045809;28;21168;-83
2024/03/06 09:58:24;;;;;;;11.52;6.68;;;;;;;5.05;100.00;101934.88;5032272;28;20938;-83
2024/03/06 10:00:56;;;;;;;11.73;6.88;;;;;;;5.25;100.00;101934.81;5028306;28;21428;-83
2024/03/06 10:03:31;;;;;;;12.55;6.65;;;;;;;5.38;100.00;101941.22;5029043;28;20423;-83
2024/03/06 10:06:05;;;;;;;12.10;6.75;;;;;;;5.13;100.00;101944.63;5034900;28;20439;-83
2024/03/06 10:08:33;;;;;;;11.63;6.60;;;;;;;5.31;100.00;101938.53;5034078;28;21000;-82
2024/03/06 10:11:02;;;;;;;12.10;6.80;;;;;;;5.31;100.00;101949.34;5029158;28;20427;-85
2024/03/06 10:13:31;;;;;;;11.60;7.10;;;;;;;5.38;100.00;101943.91;5023279;28;20427;-82
2024/03/06 10:16:00;;;;;;;13.25;7.00;;;;;;;5.58;100.00;101943.84;4999040;28;20437;-83
2024/03/06 10:18:32;;;;;;;12.90;6.75;;;;;;;5.82;100.00;101947.66;5015380;28;20440;-82
2024/03/06 10:21:04;;;;;;;11.40;6.90;;;;;;;5.51;100.00;101948.41;5028437;28;20427;-82
2024/03/06 10:23:34;;;;;;;11.75;6.95;;;;;;;5.42;100.00;101953.25;5021628;28;20423;-83
2024/03/06 10:26:08;;;;;;;11.70;6.25;;;;;;;5.63;100.00;101952.09;5031726;28;20423;-84
2024/03/06 10:28:36;;;;;;;11.30;6.40;;;;;;;5.51;100.00;101945.72;5032950;28;21531;-83
2024/03/06 10:31:09;;;;;;;13.48;6.63;;;;;;;5.62;100.00;101964.78;5034516;28;20439;-82
2024/03/06 10:33:39;;;;;;;12.80;6.60;;;;;;;5.55;100.00;101958.59;5032538;28;20432;-83
2024/03/06 10:36:12;;;;;;;12.65;6.70;;;;;;;5.69;100.00;101962.06;5026395;28;20427;-82
2024/03/06 10:38:52;;;;;;;14.32;6.70;;;;;;;5.69;100.00;101967.47;5020592;28;20439;-83
2024/03/06 10:41:27;;;;;;;10.55;6.60;;;;;;;5.91;100.00;101964.41;5023488;28;20427;-83
2024/03/06 10:43:56;;;;;;;11.77;6.47;;;;;;;6.02;100.00;101965.63;5025273;28;20431;-82
2024/03/06 10:46:26;;;;;;;12.40;6.55;;;;;;;5.77;100.00;101966.38;5014036;28;20427;-83
2024/03/06 10:49:00;;;;;;;11.38;6.72;;;;;;;5.72;100.00;101960.81;5025130;28;20412;-82
2024/03/06 10:51:34;;;;;;;13.33;6.70;;;;;;;5.68;100.00;101975.78;5028803;28;20521;-83
2024/03/06 10:54:09;;;;;;;13.68;6.93;;;;;;;5.66;100.00;101969.75;5022838;28;20429;-83
2024/03/06 10:56:42;;;;;;;12.32;6.45;;;;;;;5.85;100.00;101966.13;5025263;28;20438;-83
2024/03/06 10:59:13;;;;;;;12.75;6.50;;;;;;;5.89;100.00;101970.03;5031677;28;20972;-83
2024/03/06 11:01:43;;;;;;;12.15;6.50;;;;;;;5.87;100.00;101968.59;5023650;28;20454;-83
2024/03/06 11:04:18;;;;;;;13.43;6.82;;;;;;;5.87;100.00;101969.44;5025272;28;20427;-83
2024/03/06 11:06:48;;;;;;;11.15;6.60;;;;;;;5.81;100.00;101973.00;5030659;28;20437;-82
2024/03/06 11:09:21;;;;;;;11.10;6.67;;;;;;;5.82;100.00;101979.25;5034231;28;20415;-83
2024/03/06 11:11:53;;;;;;;12.43;6.60;;;;;;;5.85;100.00;101970.72;5023183;28;20436;-83
2024/03/06 11:14:26;;;;;;;13.25;6.43;;;;;;;6.04;100.00;101979.78;5029333;28;20539;-83
2024/03/06 11:17:03;;;;;;;11.55;6.65;;;;;;;5.87;100.00;101982.97;4993627;28;20424;-83
2024/03/06 11:20:15;;;;;;;12.05;6.60;;;;;;;5.54;100.00;101978.53;5024153;28;20432;-82
2024/03/06 11:23:11;;;;;;;13.70;6.45;;;;;;;5.58;100.00;101984.34;5012376;28;21542;-83
2024/03/06 11:26:12;;;;;;;12.35;6.63;;;;;;;5.76;100.00;101979.06;5027724;28;22304;-82
2024/03/06 11:28:50;;;;;;;11.88;6.38;;;;;;;5.76;100.00;101995.28;5018974;28;20437;-84
2024/03/06 11:31:24;;;;;;;11.57;6.35;;;;;;;5.70;100.00;101988.00;5022864;28;20456;-81
2024/03/06 11:33:55;;;;;;;12.87;6.63;;;;;;;5.65;100.00;101990.53;5020592;28;20412;-82
2024/03/06 11:36:29;;;;;;;11.98;6.75;;;;;;;5.71;100.00;101989.66;5026626;28;20442;-82
2024/03/06 11:39:06;;;;;;;11.85;6.55;;;;;;;5.91;100.00;101980.63;5031198;28;20426;-81
2024/03/06 11:41:48;;;;;;;10.77;6.53;;;;;;;5.92;100.00;101985.00;5030232;28;20958;-82
2024/03/06 11:44:24;;;;;;;11.55;6.40;;;;;;;5.91;100.00;101981.47;5028141;28;21904;-82